EGPH

Edinburgh Airport

Edinburgh, United Kingdom
METAR EGPH 170320Z 25009KT 9999 SCT018 12/11 Q1010
Observed Flight Rules
Aug-17 @ 03:20 UTC (40 minutes ago) Visual Flight Rules
Wind Visibility Clouds
250° at 9 knots 10,000+ meters
  • Scattered at 1,800' AGL
Temperatures Readings
Current 12°C / 54°F
Dewpoint 11°C / 52°F
Humidity 94%
Altimeter 29.82" Hg
Pressure 1010 hPa
Elevation 41
METAR EGPH 170320Z 25009KT 9999 SCT018 12/11 Q1010
Observed Flight Rules
Aug-17 @ 03:20 UTC
(40 minutes ago)
VFR
Wind Visibility
250° at 9 knots 10,000+ meters
Clouds
  • Scattered at 1,800' AGL
Temperature Dewpoint
12°C / 54°F 11°C / 52°F
Humidity Altimeter Pressure
94% 29.82" Hg 1010 hPa